createdAt,value
2022-08-19T00:04:35.826Z,19.21
2022-08-19T00:09:38.635Z,19.18
2022-08-19T00:14:43.277Z,19.16
2022-08-19T00:19:46.049Z,19.11
2022-08-19T00:24:49.608Z,19.12
2022-08-19T00:29:55.271Z,19.11
2022-08-19T00:34:58.184Z,19.06
2022-08-19T00:40:00.929Z,19.06
2022-08-19T00:45:12.490Z,19.06
2022-08-19T00:50:18.709Z,18.96
2022-08-19T00:55:24.417Z,18.93
2022-08-19T01:00:29.691Z,18.91
2022-08-19T01:05:32.790Z,18.83
2022-08-19T01:10:40.998Z,18.78
2022-08-19T01:15:48.848Z,18.71
2022-08-19T01:20:53.932Z,18.63
2022-08-19T01:25:57.993Z,18.62
2022-08-19T01:31:01.817Z,18.61
2022-08-19T01:36:13.689Z,18.61
2022-08-19T01:41:19.459Z,18.59
2022-08-19T01:46:24.907Z,18.55
2022-08-19T01:51:28.309Z,18.51
2022-08-19T01:56:32.911Z,18.48
2022-08-19T02:01:35.903Z,18.45
2022-08-19T02:06:39.195Z,18.41
2022-08-19T02:11:43.415Z,18.37
2022-08-19T02:16:46.153Z,18.31
2022-08-19T02:21:48.859Z,18.29
2022-08-19T02:26:53.173Z,18.26
2022-08-19T02:31:55.899Z,18.23
2022-08-19T02:37:01.900Z,18.18
2022-08-19T02:42:08.153Z,18.06
2022-08-19T02:47:11.961Z,17.98
2022-08-19T02:52:14.968Z,17.94
2022-08-19T02:57:19.041Z,17.92
2022-08-19T03:02:22.170Z,17.90
2022-08-19T03:07:24.863Z,17.87
2022-08-19T03:12:29.083Z,17.82
2022-08-19T03:17:31.891Z,17.71
2022-08-19T03:22:34.629Z,17.67
2022-08-19T03:27:38.688Z,17.59
2022-08-19T03:32:41.730Z,17.49
2022-08-19T03:37:48.267Z,17.45
2022-08-19T03:42:52.542Z,17.33
2022-08-19T03:47:55.328Z,17.30
2022-08-19T03:52:58.045Z,17.32
2022-08-19T03:58:02.105Z,17.35
2022-08-19T04:03:04.939Z,17.37
2022-08-19T04:08:10.792Z,17.36
2022-08-19T04:13:19.169Z,17.39
2022-08-19T04:18:21.869Z,17.36
2022-08-19T04:23:24.942Z,17.36
2022-08-19T04:28:29.868Z,17.36
2022-08-19T04:33:32.723Z,17.37
2022-08-19T04:38:35.562Z,17.36
2022-08-19T04:43:40.496Z,17.33
2022-08-19T04:48:49.435Z,17.33
2022-08-19T04:53:53.354Z,17.30
2022-08-19T04:58:58.503Z,17.32
2022-08-19T05:04:02.481Z,17.33
2022-08-19T05:09:07.334Z,17.37
2022-08-19T05:14:13.318Z,17.39
2022-08-19T05:19:33.691Z,17.40
2022-08-19T05:24:44.051Z,17.42
2022-08-19T05:29:55.469Z,17.41
2022-08-19T05:34:58.842Z,17.45
2022-08-19T05:40:02.376Z,17.50
2022-08-19T05:45:07.801Z,17.50
2022-08-19T05:50:11.477Z,17.59
2022-08-19T05:55:14.421Z,17.69
2022-08-19T06:00:24.032Z,17.76
2022-08-19T06:05:27.480Z,17.88
2022-08-19T06:10:30.970Z,17.97
2022-08-19T06:15:35.864Z,18.07
2022-08-19T06:20:55.078Z,18.19
2022-08-19T06:25:58.665Z,18.34
2022-08-19T06:31:08.230Z,18.48
2022-08-19T06:36:19.367Z,18.54
2022-08-19T06:41:22.111Z,18.60
2022-08-19T06:46:27.252Z,18.70
2022-08-19T06:56:35.593Z,18.81
2022-08-19T07:01:42.362Z,18.85
2022-08-19T07:06:45.727Z,18.94
2022-08-19T07:11:58.138Z,19.11
2022-08-19T07:17:02.241Z,19.28
2022-08-19T07:22:07.418Z,19.44
2022-08-19T07:27:16.978Z,19.54
2022-08-19T07:32:21.096Z,19.71
2022-08-19T07:37:23.906Z,19.91
2022-08-19T07:42:26.692Z,20.08
2022-08-19T07:47:48.968Z,20.14
2022-08-19T07:52:54.814Z,20.44
2022-08-19T07:57:57.648Z,20.42
2022-08-19T08:03:01.873Z,20.53
2022-08-19T08:08:37.211Z,21.10
2022-08-19T08:13:47.272Z,21.43
2022-08-19T08:19:20.593Z,21.84
2022-08-19T08:24:31.558Z,22.19
2022-08-19T08:29:35.336Z,22.67
2022-08-19T08:34:39.474Z,23.22
2022-08-19T08:39:42.287Z,23.47
2022-08-19T08:50:06.711Z,23.82
2022-08-19T08:55:13.225Z,24.21
2022-08-19T09:00:21.858Z,24.56
2022-08-19T09:05:39.499Z,24.70
2022-08-19T09:10:55.309Z,24.97
2022-08-19T09:16:03.263Z,24.93
2022-08-19T09:21:08.682Z,25.29
2022-08-19T09:26:16.327Z,25.23
2022-08-19T09:31:21.682Z,25.60
2022-08-19T09:36:31.269Z,25.87
2022-08-19T09:41:37.798Z,25.73
2022-08-19T09:46:40.671Z,25.64
2022-08-19T09:51:46.882Z,25.99
2022-08-19T09:56:54.545Z,26.16
2022-08-19T10:02:04.002Z,26.33
2022-08-19T10:07:15.337Z,26.55
2022-08-19T10:12:20.157Z,26.88
2022-08-19T10:17:26.423Z,27.16
2022-08-19T10:22:31.653Z,26.59
2022-08-19T10:27:34.501Z,27.36
2022-08-19T10:32:38.554Z,27.01
2022-08-19T10:37:57.047Z,27.44
2022-08-19T10:43:02.852Z,27.37
2022-08-19T10:48:05.877Z,27.50
2022-08-19T10:53:10.438Z,27.46
2022-08-19T10:58:14.885Z,28.33
2022-08-19T11:03:17.741Z,27.74
2022-08-19T11:08:22.967Z,28.15
2022-08-19T11:13:26.718Z,27.95
2022-08-19T11:18:30.084Z,28.50
2022-08-19T11:23:34.275Z,28.99
2022-08-19T11:28:37.419Z,28.17
2022-08-19T11:33:40.561Z,29.16
2022-08-19T11:38:46.890Z,28.76
2022-08-19T11:43:49.753Z,29.18
2022-08-19T11:48:53.086Z,29.56
2022-08-19T11:53:58.539Z,30.29
2022-08-19T11:59:02.743Z,30.80
2022-08-19T12:04:06.336Z,30.82
2022-08-19T12:09:11.989Z,31.64
2022-08-19T12:14:16.842Z,31.53
2022-08-19T12:19:22.591Z,32.35
2022-08-19T12:24:26.905Z,34.27
2022-08-19T12:29:30.277Z,34.93
2022-08-19T12:34:34.477Z,34.95
2022-08-19T12:39:40.828Z,35.40
2022-08-19T12:44:45.055Z,34.29
2022-08-19T12:49:53.068Z,33.82
2022-08-19T12:54:59.537Z,32.60
2022-08-19T13:00:07.059Z,33.82
2022-08-19T13:05:13.150Z,34.11
2022-08-19T13:10:20.505Z,35.18
2022-08-19T13:15:24.715Z,36.50
2022-08-19T13:20:27.902Z,36.95
2022-08-19T13:25:32.001Z,36.22
2022-08-19T13:30:52.780Z,37.92
2022-08-19T13:36:01.458Z,38.28
2022-08-19T13:41:12.153Z,39.47
2022-08-19T13:46:16.044Z,37.98
2022-08-19T13:51:19.707Z,39.02
2022-08-19T13:56:26.350Z,37.63
2022-08-19T14:01:31.180Z,35.75
2022-08-19T14:06:34.049Z,35.94
2022-08-19T14:11:38.332Z,37.40
2022-08-19T14:16:41.041Z,37.85
2022-08-19T14:21:43.769Z,37.92
2022-08-19T14:26:47.862Z,38.83
2022-08-19T14:31:50.622Z,39.13
2022-08-19T14:36:53.667Z,40.95
2022-08-19T14:41:58.245Z,41.40
2022-08-19T14:47:01.066Z,41.59
2022-08-19T14:52:06.031Z,40.98
2022-08-19T14:57:13.506Z,41.01
2022-08-19T15:02:33.838Z,42.32
2022-08-19T15:07:37.293Z,42.66
2022-08-19T15:12:41.787Z,44.07
2022-08-19T15:17:46.694Z,45.99
2022-08-19T15:22:49.466Z,44.01
2022-08-19T15:27:53.680Z,44.83
2022-08-19T15:32:57.771Z,44.62
2022-08-19T15:38:00.611Z,45.98
2022-08-19T15:43:04.763Z,47.23
2022-08-19T15:48:07.652Z,46.91
2022-08-19T15:53:11.605Z,47.99
2022-08-19T15:58:35.312Z,45.22
2022-08-19T16:03:55.836Z,42.81
2022-08-19T16:09:01.908Z,41.80
2022-08-19T16:14:09.189Z,41.80
2022-08-19T16:19:13.359Z,39.56
2022-08-19T16:24:19.293Z,38.24
2022-08-19T16:29:33.832Z,36.75
2022-08-19T16:34:38.906Z,35.54
2022-08-19T16:39:43.642Z,34.55
2022-08-19T16:44:48.581Z,33.85
2022-08-19T16:49:52.990Z,33.52
2022-08-19T16:54:58.110Z,33.16
2022-08-19T17:00:05.219Z,32.66
2022-08-19T17:05:10.041Z,31.43
2022-08-19T17:10:12.830Z,31.23
2022-08-19T17:15:16.942Z,30.08
2022-08-19T17:20:20.299Z,29.55
2022-08-19T17:25:23.168Z,28.71
2022-08-19T17:30:27.440Z,28.09
2022-08-19T17:35:30.291Z,27.43
2022-08-19T17:40:33.261Z,27.06
2022-08-19T17:45:38.704Z,26.63
2022-08-19T17:50:41.642Z,26.24
2022-08-19T17:55:44.937Z,26.00
2022-08-19T18:00:54.418Z,25.69
2022-08-19T18:05:58.544Z,25.56
2022-08-19T18:11:01.522Z,25.34
2022-08-19T18:16:10.878Z,25.32
2022-08-19T18:21:13.781Z,25.10
2022-08-19T18:26:16.676Z,24.89
2022-08-19T18:31:21.054Z,24.69
2022-08-19T18:36:50.181Z,24.57
2022-08-19T18:42:04.290Z,24.40
2022-08-19T18:47:26.175Z,24.29
2022-08-19T18:52:28.931Z,24.16
2022-08-19T18:57:31.638Z,24.07
2022-08-19T19:02:39.879Z,24.00
2022-08-19T19:07:43.934Z,23.87
2022-08-19T19:12:47.159Z,23.79
2022-08-19T19:17:51.278Z,23.70
2022-08-19T19:22:55.948Z,23.62
2022-08-19T19:28:01.194Z,23.59
2022-08-19T19:33:05.878Z,23.53
2022-08-19T19:38:08.587Z,23.45
2022-08-19T19:43:11.301Z,23.40
2022-08-19T19:48:16.497Z,23.35
2022-08-19T19:53:19.270Z,23.30
2022-08-19T19:58:28.887Z,23.25
2022-08-19T20:03:33.422Z,23.19
2022-08-19T20:08:54.738Z,23.15
2022-08-19T20:13:57.515Z,23.13
2022-08-19T20:19:03.454Z,23.09
2022-08-19T20:24:09.905Z,23.03
2022-08-19T20:29:13.465Z,22.97
2022-08-19T20:34:37.421Z,22.94
2022-08-19T20:39:40.285Z,22.89
2022-08-19T20:44:43.047Z,22.81
2022-08-19T20:49:47.274Z,22.78
2022-08-19T20:54:50.154Z,22.75
2022-08-19T20:59:52.891Z,22.67
2022-08-19T21:04:59.099Z,22.62
2022-08-19T21:10:03.189Z,22.56
2022-08-19T21:15:08.639Z,22.47
2022-08-19T21:20:12.844Z,22.43
2022-08-19T21:25:17.159Z,22.35
2022-08-19T21:30:20.030Z,22.31
2022-08-19T21:35:24.965Z,22.27
2022-08-19T21:40:28.305Z,22.22
2022-08-19T21:45:31.321Z,22.16
2022-08-19T21:50:35.897Z,22.14
2022-08-19T21:55:39.702Z,22.09
2022-08-19T22:00:42.556Z,22.02
2022-08-19T22:05:46.669Z,22.00
2022-08-19T22:10:50.085Z,21.97
2022-08-19T22:15:52.918Z,21.97
2022-08-19T22:20:57.109Z,21.94
2022-08-19T22:25:59.959Z,21.87
2022-08-19T22:31:03.446Z,21.84
2022-08-19T22:36:08.678Z,21.76
2022-08-19T22:41:11.874Z,21.69
2022-08-19T22:46:17.398Z,21.64
2022-08-19T22:51:39.472Z,21.54
2022-08-19T22:56:43.337Z,21.48
2022-08-19T23:01:46.998Z,21.44
2022-08-19T23:06:52.768Z,21.40
2022-08-19T23:11:55.561Z,21.37
2022-08-19T23:16:59.231Z,21.34
2022-08-19T23:22:05.162Z,21.33
2022-08-19T23:27:25.745Z,21.23
2022-08-19T23:32:29.257Z,21.20
2022-08-19T23:37:33.355Z,21.14
2022-08-19T23:42:36.329Z,21.10
2022-08-19T23:47:40.589Z,21.08
2022-08-19T23:52:47.863Z,21.06
2022-08-19T23:57:50.839Z,20.98
